Main page
METAR-TAF:

METAR-TAF

Airports :

Yellowstone Regional Airport

Cody, Wyoming, United States

latitude: 44-31N, longitude: 109-01W, elevation: 5087 ft

Current weather observation

The report was made 38 minutes ago, at 14:56 UTC
Wind 5 mph from the North
Temperature 37°F
Humidity 65%
Pressure 30.15 in. Hg
Visibility: 10 miles
Clear sky

METAR: KCOD 211456Z AUTO 35004KT 10SM CLR 03/M03 A3015 RMK AO2 SLP220 T00331033 58009

Time: 09:34 (15:34 UTC)

Forecast

The report was made 4 hours and 14 minutes ago, at 11:20 UTC
Forecast valid from 21 at 12 UTC to 22 at 12 UTC
Wind 7 mph from variable directions
Visibility: 6 miles
Few clouds at a height of 20000 ft
From 21 at 1900 UTC
Wind 14 mph from the Southwest with gusts up to 21 mph
Visibility: 6 miles
Broken clouds at a height of 15000 ft
From 22 at 0200 UTC
Wind 12 mph from the North/Northwest
Visibility: 6 miles
Broken clouds at a height of 8000 ft

TAF: KCOD 211120Z 2112/2212 VRB06KT P6SM FEW200 FM211900 23012G18KT P6SM BKN150 FM220200 34010KT P6SM BKN080

Weather observations and forecasts of more than 4000 airports (METAR and TAF reports).

The available stations are represented by yellow and red dots on the map.

Hover mouse over dot to see the name of the station.

Then click to see weather observations and forecasts.

To change the map : click on the green buttons with a black cross to zoom in, on the green button with a dash to zoom out, or on the green arrows for adjacent maps.


METAR-TAF: